LiveATC.Net - Listen to live air traffic control over the Internet!


ICAO: ENAL  IATA: AES   Airport: Alesund Airport, Vigra
City: Alesund
Country: Norway   Continent: Europe
ENAL METAR Weather: ENAL 021250Z 04015KT 9999 VCSH SCT025CB SCT055 02/M05 Q0998
ENAL Flight Activity (FlightAware)
ENAL Webcam:  (Airport Webcams) 

ENAL Twr/App
Feed Status: UP   Listeners: 0
Listen in your browser - HTML5 player (in browser, HTML5)
Click here to listen with your own player (launches your MP3 player)
Archive Access: ENAL Twr/App
FacilityFrequency
More Approach119.350
More Approach129.325
Vigra Tower118.100

NOTICE

Unauthorized use prohibited. See LiveATC.net Terms of Service


Airport/ARTCC Code
Frequency Search
(e.g., 124.400, 128.75)
Site-wide search
 


Browse Feeds
Top 50 Feeds
HF Oceanic Feeds
Coverage Map
Bad Weather Areas

LiveATC FAQ
Offer LiveATC feed
Contact LiveATC.net
Press Inquiries

LiveATC on iPhone
LiveATC on Android

Windows Phone
Windows 8/10

LiveATC Mobile
(Mobile browser)

ATC Audio Archives
Interesting Recordings

LiveATC Forums


Home Page
About LiveATC.net
Make a Donation
Terms of Use
Privacy Policy

Canadian Air Freqs

AIRMETs/SIGMETs

FAA Airport Status
NAS Status
Arrival Demand


Server Software By:
Icecast.org
Liquidsoap